Time;durP1;ratioP1;P1;durP2;ratioP2;P2;SDS_P1;SDS_P2;PMS_P1;PMS_P2;Temp;Humidity;BMP_temperature;BMP_pressure;BME280_temperature;BME280_humidity;BME280_pressure;Samples;Min_cycle;Max_cycle;Signal;HPM_P1;HPM_P2
2022/08/21 00:02:14;;;;;;;8.60;5.43;;;;;;;17.28;80.72;100407.47;5067403;28;20472;-82
2022/08/21 00:04:41;;;;;;;6.43;5.60;;;;;;;17.19;81.49;100413.13;5075411;28;20440;-82
2022/08/21 00:07:08;;;;;;;12.37;5.40;;;;;;;17.15;81.29;100409.94;5075881;28;20554;-82
2022/08/21 00:09:35;;;;;;;7.30;5.40;;;;;;;17.12;81.57;100402.19;5067448;28;20479;-82
2022/08/21 00:12:05;;;;;;;7.73;4.97;;;;;;;17.11;81.80;100401.31;5050178;28;20476;-81
2022/08/21 00:14:32;;;;;;;5.80;4.87;;;;;;;17.15;81.64;100403.69;5061420;28;20481;-82
2022/08/21 00:16:59;;;;;;;8.97;5.20;;;;;;;17.16;81.71;100395.41;5074933;28;20823;-82
2022/08/21 00:19:26;;;;;;;7.77;6.57;;;;;;;17.15;81.62;100399.13;5081342;28;20487;-82
2022/08/21 00:21:53;;;;;;;6.80;5.80;;;;;;;17.19;81.81;100389.63;5075436;28;20764;-82
2022/08/21 00:24:21;;;;;;;7.43;5.80;;;;;;;17.20;82.01;100396.72;5061760;28;20452;-80
2022/08/21 00:26:48;;;;;;;8.00;5.47;;;;;;;17.25;81.39;100391.59;5061042;28;20823;-81
2022/08/21 00:29:17;;;;;;;9.40;5.20;;;;;;;17.21;81.67;100382.19;5073641;28;20448;-81
2022/08/21 00:31:44;;;;;;;9.17;6.80;;;;;;;17.13;82.23;100385.81;5080280;28;20966;-80
2022/08/21 00:34:11;;;;;;;8.60;5.70;;;;;;;17.10;82.04;100398.84;5081441;28;20429;-80
2022/08/21 00:36:40;;;;;;;5.53;5.00;;;;;;;17.00;82.24;100399.06;5062487;28;20491;-80
2022/08/21 00:39:08;;;;;;;10.80;5.57;;;;;;;16.96;82.77;100400.44;5073174;28;20504;-80
2022/08/21 00:41:36;;;;;;;8.27;5.60;;;;;;;16.92;83.16;100391.00;5080904;28;20483;-81
2022/08/21 00:44:03;;;;;;;8.30;5.87;;;;;;;16.97;83.34;100395.88;5083687;28;20472;-81
2022/08/21 00:46:31;;;;;;;7.27;5.90;;;;;;;16.99;84.31;100391.13;5084515;28;20522;-81
2022/08/21 00:48:58;;;;;;;11.47;5.37;;;;;;;17.08;84.08;100392.75;5082013;28;20473;-81
2022/08/21 00:51:27;;;;;;;9.43;6.90;;;;;;;17.16;84.35;100392.69;5066478;28;20484;-81
2022/08/21 00:53:58;;;;;;;6.10;4.90;;;;;;;17.08;83.81;100390.03;5073882;28;20448;-81
2022/08/21 00:56:26;;;;;;;8.20;5.03;;;;;;;17.00;84.03;100390.13;5069225;28;20512;-81
2022/08/21 00:58:54;;;;;;;8.43;5.60;;;;;;;16.94;84.21;100395.22;5064823;28;20477;-82
2022/08/21 01:01:21;;;;;;;7.70;5.77;;;;;;;16.92;84.62;100405.34;5068612;28;20495;-82
2022/08/21 01:03:49;;;;;;;6.47;5.23;;;;;;;16.89;84.47;100403.00;5068295;28;20479;-81
2022/08/21 01:06:16;;;;;;;7.33;5.53;;;;;;;16.84;84.02;100412.66;5083086;28;20579;-81
2022/08/21 01:08:43;;;;;;;9.17;5.40;;;;;;;16.66;82.88;100404.78;5083333;28;20451;-81
2022/08/21 01:11:09;;;;;;;7.37;5.23;;;;;;;16.63;82.55;100395.19;5072412;28;20552;-81
2022/08/21 01:13:39;;;;;;;9.90;5.10;;;;;;;16.70;81.72;100390.78;5064805;28;20524;-80
2022/08/21 01:16:09;;;;;;;9.20;5.50;;;;;;;16.80;81.59;100390.53;5064005;28;20465;-80
2022/08/21 01:18:36;;;;;;;7.33;5.53;;;;;;;16.78;81.30;100400.66;5065686;28;20506;-80
2022/08/21 01:21:13;;;;;;;7.63;5.40;;;;;;;16.69;82.00;100399.03;5079956;28;20540;-81
2022/08/21 01:23:42;;;;;;;9.77;5.87;;;;;;;16.66;82.10;100394.81;5064651;28;20441;-81
2022/08/21 01:26:10;;;;;;;7.70;4.97;;;;;;;16.62;82.46;100398.06;5071770;28;20472;-82
2022/08/21 01:28:40;;;;;;;10.37;5.77;;;;;;;16.64;83.04;100402.25;5081329;28;20444;-81
2022/08/21 01:31:08;;;;;;;7.30;5.83;;;;;;;16.53;83.32;100398.09;5070614;28;20562;-81
2022/08/21 01:33:35;;;;;;;10.60;5.20;;;;;;;16.47;83.68;100390.69;5072812;28;20473;-81
2022/08/21 01:36:02;;;;;;;9.10;6.07;;;;;;;16.45;84.21;100384.63;5080230;28;20495;-81
2022/08/21 01:38:30;;;;;;;9.17;5.80;;;;;;;16.43;84.56;100393.94;5065418;28;20437;-82
2022/08/21 01:40:57;;;;;;;8.10;5.90;;;;;;;16.52;84.50;100392.88;5072092;28;20952;-82
2022/08/21 01:43:24;;;;;;;11.03;6.83;;;;;;;16.44;84.44;100391.06;5082245;28;20482;-82
2022/08/21 01:45:51;;;;;;;8.00;7.00;;;;;;;16.19;85.72;100385.75;5076258;28;20966;-81
2022/08/21 01:48:17;;;;;;;12.37;7.13;;;;;;;16.41;85.32;100393.28;5083743;28;20444;-81
2022/08/21 01:50:44;;;;;;;9.10;6.37;;;;;;;16.38;85.11;100384.50;5083436;28;20891;-81
2022/08/21 01:53:11;;;;;;;9.73;5.97;;;;;;;16.41;85.60;100383.31;5083633;28;20455;-81
2022/08/21 01:55:39;;;;;;;10.87;6.50;;;;;;;16.44;85.61;100382.13;5065931;28;20503;-81
2022/08/21 01:58:05;;;;;;;10.10;7.30;;;;;;;16.41;85.24;100386.03;5077345;28;20437;-81
2022/08/21 02:00:32;;;;;;;10.33;6.77;;;;;;;16.34;85.64;100388.56;5063555;28;20500;-82
2022/08/21 02:02:59;;;;;;;9.73;7.13;;;;;;;16.38;85.93;100380.97;5064300;28;20488;-82
2022/08/21 02:05:26;;;;;;;9.17;6.80;;;;;;;16.38;85.95;100380.97;5063906;28;20441;-81
2022/08/21 02:07:54;;;;;;;8.27;7.30;;;;;;;16.35;86.16;100389.41;5064206;28;20469;-82
2022/08/21 02:10:23;;;;;;;7.87;7.17;;;;;;;16.32;85.87;100382.50;5079558;28;20885;-81
2022/08/21 02:12:51;;;;;;;10.20;6.87;;;;;;;16.34;86.04;100388.56;5063646;28;20457;-80
2022/08/21 02:15:19;;;;;;;9.50;7.80;;;;;;;16.38;86.18;100387.19;5064132;28;20453;-81
2022/08/21 02:17:48;;;;;;;9.30;6.60;;;;;;;16.49;86.30;100391.38;5063960;28;20441;-80
2022/08/21 02:20:18;;;;;;;9.20;7.60;;;;;;;16.51;85.89;100380.41;5062829;28;20949;-81
2022/08/21 02:22:44;;;;;;;9.60;8.20;;;;;;;16.51;85.85;100383.13;5074571;28;20452;-81
2022/08/21 02:25:11;;;;;;;11.80;8.07;;;;;;;16.54;85.70;100377.34;5081089;28;20439;-81
2022/08/21 02:27:41;;;;;;;8.37;7.50;;;;;;;16.60;85.33;100368.56;5070236;28;20828;-81
2022/08/21 02:30:12;;;;;;;10.30;7.00;;;;;;;16.60;85.47;100370.41;5064047;28;20457;-82
2022/08/21 02:32:38;;;;;;;11.83;7.70;;;;;;;16.60;85.35;100360.47;5082658;28;20451;-81
2022/08/21 02:35:06;;;;;;;14.17;8.27;;;;;;;16.51;85.26;100367.75;5082575;28;20535;-80
2022/08/21 02:37:32;;;;;;;8.37;7.00;;;;;;;16.43;85.06;100367.78;5101225;28;20517;-81
2022/08/21 02:40:00;;;;;;;10.30;7.17;;;;;;;16.32;85.87;100371.72;5102241;28;20503;-81
2022/08/21 02:42:27;;;;;;;9.03;7.63;;;;;;;16.23;85.86;100369.22;5100834;28;20513;-81
2022/08/21 02:44:54;;;;;;;10.27;6.77;;;;;;;16.18;85.95;100376.00;5089677;28;20496;-81
2022/08/21 02:47:22;;;;;;;10.23;8.43;;;;;;;16.19;86.14;100358.78;5092961;28;20475;-82
2022/08/21 02:49:49;;;;;;;10.60;8.23;;;;;;;16.15;86.36;100359.31;5103470;28;20428;-81
2022/08/21 02:52:15;;;;;;;11.27;7.50;;;;;;;16.17;86.24;100363.50;5086355;28;20533;-81
2022/08/21 02:54:42;;;;;;;10.47;7.97;;;;;;;16.17;86.05;100359.97;5087918;28;20966;-80
2022/08/21 02:57:09;;;;;;;11.00;7.90;;;;;;;16.03;86.58;100361.53;5089899;28;21043;-81
2022/08/21 02:59:36;;;;;;;13.23;9.30;;;;;;;16.05;86.81;100364.91;5082849;28;21027;-81
2022/08/21 03:02:02;;;;;;;13.93;8.03;;;;;;;15.99;86.67;100354.81;5082660;28;20475;-81
2022/08/21 03:04:31;;;;;;;9.17;7.27;;;;;;;15.98;86.82;100359.34;5094769;28;20443;-81
2022/08/21 03:06:58;;;;;;;12.97;8.40;;;;;;;15.93;86.45;100359.03;5072464;28;20495;-80
2022/08/21 03:09:25;;;;;;;9.73;8.13;;;;;;;15.96;86.53;100364.09;5076333;28;20442;-80
2022/08/21 03:11:53;;;;;;;12.70;8.20;;;;;;;15.90;87.11;100350.44;5081185;28;20559;-79
2022/08/21 03:14:20;;;;;;;9.93;8.83;;;;;;;15.95;87.00;100353.47;5081956;28;20791;-80
2022/08/21 03:16:46;;;;;;;10.03;7.50;;;;;;;16.03;87.12;100356.16;5095347;28;20474;-82
2022/08/21 03:19:13;;;;;;;10.73;8.83;;;;;;;16.04;87.09;100357.84;5102388;28;20498;-82
2022/08/21 03:21:41;;;;;;;9.90;7.97;;;;;;;15.97;87.18;100360.38;5100282;28;20496;-82
2022/08/21 03:24:09;;;;;;;11.33;7.80;;;;;;;16.09;87.36;100363.56;5095290;28;20460;-82
2022/08/21 03:26:35;;;;;;;9.23;8.27;;;;;;;16.21;87.15;100361.31;5091026;28;20526;-82
2022/08/21 03:29:03;;;;;;;12.17;7.10;;;;;;;16.23;87.12;100359.28;5100335;28;20476;-82
2022/08/21 03:31:31;;;;;;;13.40;7.80;;;;;;;16.22;86.65;100359.47;5101721;28;20470;-81
2022/08/21 03:33:58;;;;;;;7.53;6.73;;;;;;;16.18;86.31;100362.50;5102077;28;20493;-81
2022/08/21 03:36:25;;;;;;;8.67;7.07;;;;;;;16.15;86.24;100367.41;5100151;28;20498;-81
2022/08/21 03:38:53;;;;;;;12.77;7.60;;;;;;;16.18;86.23;100361.66;5102291;28;20486;-81
2022/08/21 03:41:20;;;;;;;9.53;7.10;;;;;;;16.14;86.00;100366.56;5082682;28;20503;-82
2022/08/21 03:43:46;;;;;;;10.80;6.83;;;;;;;16.04;86.56;100365.94;5084397;28;20483;-83
2022/08/21 03:46:13;;;;;;;8.20;6.13;;;;;;;16.14;86.36;100363.00;5089490;28;20492;-82
2022/08/21 03:48:40;;;;;;;10.70;7.53;;;;;;;16.22;86.37;100367.56;5082314;28;20440;-83
2022/08/21 03:51:07;;;;;;;7.90;7.10;;;;;;;16.15;86.04;100362.00;5082352;28;20487;-81
2022/08/21 03:53:34;;;;;;;7.13;6.13;;;;;;;16.15;85.94;100362.00;5081658;28;20436;-82
2022/08/21 03:56:03;;;;;;;11.07;6.80;;;;;;;16.24;85.75;100365.53;5082586;28;20485;-82
2022/08/21 03:58:30;;;;;;;6.57;5.97;;;;;;;16.32;85.43;100368.19;5102538;28;20462;-82
2022/08/21 04:01:00;;;;;;;9.40;6.30;;;;;;;16.30;85.48;100368.38;5100656;28;20478;-83
2022/08/21 04:03:28;;;;;;;8.20;5.73;;;;;;;16.29;85.48;100377.47;5102510;28;20469;-82
2022/08/21 04:05:55;;;;;;;11.27;6.90;;;;;;;16.29;85.24;100372.06;5100894;28;20562;-82
2022/08/21 04:08:21;;;;;;;9.33;6.97;;;;;;;16.24;85.69;100377.16;5083312;28;20477;-82
2022/08/21 04:10:52;;;;;;;8.50;6.23;;;;;;;16.18;85.58;100378.69;5080438;28;21015;-82
2022/08/21 04:13:20;;;;;;;10.47;6.60;;;;;;;16.17;85.55;100378.84;5083328;28;20490;-82
2022/08/21 04:15:47;;;;;;;7.47;6.40;;;;;;;16.16;85.89;100379.88;5095506;28;20546;-82
2022/08/21 04:18:14;;;;;;;9.27;6.27;;;;;;;16.13;85.57;100381.06;5106729;28;20446;-81
2022/08/21 04:20:42;;;;;;;8.53;6.87;;;;;;;16.11;85.58;100379.53;5105777;28;20497;-82
2022/08/21 04:23:08;;;;;;;11.47;6.90;;;;;;;16.07;85.96;100379.06;5096465;28;20527;-82
2022/08/21 04:25:35;;;;;;;8.43;6.60;;;;;;;16.07;85.79;100389.00;5098398;28;20892;-82
2022/08/21 04:28:02;;;;;;;10.43;6.90;;;;;;;16.05;86.07;100388.34;5100912;28;20439;-82
2022/08/21 04:30:30;;;;;;;7.60;6.67;;;;;;;15.94;86.14;100389.56;5093819;28;20981;-81
2022/08/21 04:32:58;;;;;;;7.77;6.93;;;;;;;16.13;85.49;100391.03;5087260;28;20462;-82
2022/08/21 04:35:26;;;;;;;8.60;7.70;;;;;;;16.11;85.71;100382.25;5102355;28;20471;-82
2022/08/21 04:37:53;;;;;;;7.10;6.40;;;;;;;16.03;86.28;100384.97;5086913;28;20468;-82
2022/08/21 04:40:21;;;;;;;12.37;6.33;;;;;;;16.05;86.56;100399.13;5088105;28;20495;-82
2022/08/21 04:42:50;;;;;;;8.77;7.00;;;;;;;16.03;86.52;100393.91;5087019;28;20808;-82
2022/08/21 04:45:20;;;;;;;6.97;6.20;;;;;;;16.06;86.49;100398.97;5099688;28;20462;-81
2022/08/21 04:47:50;;;;;;;8.23;6.80;;;;;;;16.16;86.11;100398.75;5105238;28;20435;-81
2022/08/21 04:50:17;;;;;;;7.20;6.47;;;;;;;16.14;85.99;100400.78;5096163;28;20471;-81
2022/08/21 04:52:44;;;;;;;7.83;7.07;;;;;;;16.26;85.72;100403.94;5086614;28;20455;-81
2022/08/21 04:55:11;;;;;;;11.03;8.20;;;;;;;16.25;85.69;100397.72;5081479;28;20487;-80
2022/08/21 04:57:38;;;;;;;7.77;6.97;;;;;;;16.29;85.16;100403.59;5096039;28;20515;-80
2022/08/21 05:00:07;;;;;;;7.80;7.00;;;;;;;16.34;84.44;100409.31;5087148;28;20483;-80
2022/08/21 05:02:34;;;;;;;8.80;7.23;;;;;;;16.40;84.21;100410.47;5065020;28;20532;-80
2022/08/21 05:05:02;;;;;;;8.00;6.70;;;;;;;16.41;84.02;100406.78;5065849;28;20476;-81
2022/08/21 05:07:30;;;;;;;16.60;8.10;;;;;;;16.45;83.90;100408.94;5064684;28;20476;-82
2022/08/21 05:09:57;;;;;;;9.33;7.47;;;;;;;16.55;84.39;100409.56;5065138;28;20445;-82
2022/08/21 05:12:24;;;;;;;9.70;7.10;;;;;;;17.23;82.87;100414.44;5065052;28;20469;-82
2022/08/21 05:14:51;;;;;;;8.93;8.03;;;;;;;18.44;78.65;100412.63;5052733;28;20484;-82
2022/08/21 05:17:18;;;;;;;7.60;6.90;;;;;;;19.54;71.47;100413.41;5053887;28;20492;-82
2022/08/21 05:19:45;;;;;;;9.70;6.70;;;;;;;19.89;68.32;100413.50;5061995;28;20813;-82
2022/08/21 05:22:20;;;;;;;7.17;5.97;;;;;;;20.16;66.89;100410.97;5062074;28;20469;-82
2022/08/21 05:24:47;;;;;;;6.47;5.83;;;;;;;20.93;64.24;100406.31;5061219;28;20483;-83
2022/08/21 05:27:13;;;;;;;7.10;5.20;;;;;;;21.83;61.00;100408.75;5064094;28;20480;-83
2022/08/21 05:29:40;;;;;;;9.63;4.97;;;;;;;22.83;56.90;100414.75;5064525;28;20452;-82
2022/08/21 05:32:10;;;;;;;9.80;5.03;;;;;;;21.69;60.19;100416.06;5064560;28;20529;-81
2022/08/21 05:34:36;;;;;;;7.97;4.90;;;;;;;22.89;57.45;100418.50;5064611;28;20463;-80
2022/08/21 05:37:03;;;;;;;6.93;5.40;;;;;;;23.06;55.81;100419.69;5055305;28;20484;-81
2022/08/21 05:39:31;;;;;;;6.97;5.70;;;;;;;23.21;55.27;100421.28;5057833;28;20463;-84
2022/08/21 05:41:58;;;;;;;6.57;4.70;;;;;;;23.22;55.42;100423.78;5049185;28;20505;-83
2022/08/21 05:44:25;;;;;;;6.00;5.00;;;;;;;23.75;53.37;100428.03;5052836;28;20449;-81
2022/08/21 05:46:51;;;;;;;6.97;6.30;;;;;;;24.00;52.72;100422.56;5065481;28;20538;-80
2022/08/21 05:49:18;;;;;;;6.90;6.03;;;;;;;23.76;53.00;100426.13;5066923;28;20437;-82
2022/08/21 05:51:45;;;;;;;13.10;7.73;;;;;;;25.51;48.37;100421.94;5066554;28;20555;-81
2022/08/21 05:54:11;;;;;;;8.37;7.43;;;;;;;26.15;45.93;100431.44;5057062;28;20469;-81
2022/08/21 05:56:44;;;;;;;8.73;7.20;;;;;;;27.22;43.09;100425.41;5087238;28;20467;-90
2022/08/21 05:59:11;;;;;;;12.23;8.20;;;;;;;26.46;44.79;100425.53;5081123;28;20459;-89
2022/08/21 06:01:37;;;;;;;7.60;6.90;;;;;;;25.98;47.13;100423.91;5065935;28;20505;-90
2022/08/21 06:04:05;;;;;;;10.00;7.13;;;;;;;26.58;45.32;100420.03;5071380;28;20502;-91
2022/08/21 06:06:32;;;;;;;9.90;7.83;;;;;;;26.95;43.26;100422.41;5084553;28;20484;-91
2022/08/21 06:08:59;;;;;;;9.63;7.37;;;;;;;27.47;41.87;100426.97;5069233;28;20728;-89
2022/08/21 06:11:25;;;;;;;12.33;8.80;;;;;;;26.70;43.16;100416.44;5067555;28;20483;-91
2022/08/21 06:13:53;;;;;;;9.53;8.10;;;;;;;27.84;40.46;100420.94;5066477;28;20452;-82
2022/08/21 06:16:21;;;;;;;8.97;7.40;;;;;;;27.55;40.36;100420.22;5083006;28;21022;-83
2022/08/21 06:18:48;;;;;;;10.00;7.97;;;;;;;26.80;42.51;100411.97;5076430;28;20877;-81
2022/08/21 06:21:15;;;;;;;9.90;7.20;;;;;;;26.79;42.16;100415.00;5060816;28;20481;-80
2022/08/21 06:23:42;;;;;;;10.00;8.57;;;;;;;27.15;41.62;100411.00;5071471;28;20477;-81
2022/08/21 06:26:09;;;;;;;9.63;8.17;;;;;;;27.16;41.61;100417.31;5064995;28;21016;-81
2022/08/21 06:28:37;;;;;;;11.37;7.87;;;;;;;27.59;40.60;100415.91;5075659;28;20453;-79
2022/08/21 06:31:13;;;;;;;8.90;7.70;;;;;;;27.89;39.40;100411.97;5062234;28;20512;-80
2022/08/21 06:33:40;;;;;;;9.87;7.67;;;;;;;27.20;41.46;100419.34;5082539;28;20460;-80
2022/08/21 06:36:07;;;;;;;10.03;7.37;;;;;;;28.49;38.68;100419.44;5063461;28;20505;-81
2022/08/21 06:38:34;;;;;;;9.67;6.77;;;;;;;28.74;38.19;100420.84;5060993;28;20460;-80
2022/08/21 06:41:01;;;;;;;11.23;7.60;;;;;;;28.47;38.51;100412.50;5083506;28;20479;-81
2022/08/21 06:43:27;;;;;;;9.87;7.70;;;;;;;28.90;37.21;100416.34;5078111;28;20464;-81
2022/08/21 06:45:54;;;;;;;13.93;7.13;;;;;;;30.18;35.00;100416.63;5064364;28;20466;-81
2022/08/21 06:48:22;;;;;;;8.10;6.60;;;;;;;30.18;33.69;100416.63;5085239;28;20440;-80
2022/08/21 06:50:49;;;;;;;8.77;7.10;;;;;;;28.76;37.34;100407.66;5082242;28;20476;-81
2022/08/21 06:53:18;;;;;;;8.17;6.37;;;;;;;29.66;35.62;100410.75;5069273;28;20539;-81
2022/08/21 06:55:44;;;;;;;12.47;7.30;;;;;;;29.19;35.77;100408.69;5067934;28;20519;-81
2022/08/21 06:58:13;;;;;;;7.63;6.83;;;;;;;29.13;35.54;100415.22;5057562;28;20461;-81
2022/08/21 07:00:41;;;;;;;10.37;7.37;;;;;;;28.76;36.71;100412.34;5044539;28;20484;-81
2022/08/21 07:03:08;;;;;;;9.60;7.10;;;;;;;29.32;35.67;100410.19;5063485;28;20485;-82
2022/08/21 07:05:36;;;;;;;8.10;6.60;;;;;;;29.83;34.89;100404.31;5068549;28;20472;-81
2022/08/21 07:08:03;;;;;;;9.43;6.50;;;;;;;29.93;33.79;100401.63;5067279;28;20545;-81
2022/08/21 07:10:30;;;;;;;7.97;5.97;;;;;;;29.35;35.40;100406.91;5066060;28;20491;-82
2022/08/21 07:12:57;;;;;;;8.17;7.37;;;;;;;28.92;35.65;100403.16;5060601;28;20453;-81
2022/08/21 07:15:23;;;;;;;7.70;6.87;;;;;;;28.14;37.06;100412.38;5059728;28;20506;-78
2022/08/21 07:17:50;;;;;;;7.63;6.33;;;;;;;27.76;37.86;100415.91;5066995;28;20522;-79
2022/08/21 07:20:17;;;;;;;10.33;6.13;;;;;;;29.75;34.46;100405.56;5076579;28;20452;-79
2022/08/21 07:22:45;;;;;;;7.80;6.50;;;;;;;29.45;35.36;100404.25;5065188;28;20473;-79
2022/08/21 07:25:12;;;;;;;11.80;7.00;;;;;;;30.11;33.69;100399.50;5061868;28;20485;-79
2022/08/21 07:27:38;;;;;;;7.73;5.47;;;;;;;30.02;33.42;100410.22;5079491;28;20435;-80
2022/08/21 07:30:07;;;;;;;9.43;6.30;;;;;;;30.29;34.18;100398.22;5057312;28;20497;-80
2022/08/21 07:32:33;;;;;;;6.77;5.93;;;;;;;29.71;34.18;100401.69;5089408;28;20486;-78
2022/08/21 07:35:00;;;;;;;10.63;7.40;;;;;;;30.26;34.01;100399.59;5084427;28;20503;-80
2022/08/21 07:37:27;;;;;;;8.50;6.83;;;;;;;30.91;33.42;100399.28;5086053;28;20487;-80
2022/08/21 07:39:55;;;;;;;7.10;6.07;;;;;;;31.32;32.77;100400.22;5087066;28;20515;-80
2022/08/21 07:42:22;;;;;;;7.23;5.83;;;;;;;31.52;31.41;100399.41;5084789;28;20593;-81
2022/08/21 07:44:48;;;;;;;7.50;6.40;;;;;;;30.20;33.60;100400.66;5081829;28;20993;-80
2022/08/21 07:47:15;;;;;;;12.43;5.43;;;;;;;30.79;33.00;100403.13;5082835;28;20858;-81
2022/08/21 07:49:42;;;;;;;6.70;5.70;;;;;;;30.25;33.08;100397.91;5083864;28;20447;-80
2022/08/21 07:52:09;;;;;;;8.30;7.43;;;;;;;29.13;35.79;100398.72;5071906;28;21016;-80
2022/08/21 07:54:35;;;;;;;10.70;6.63;;;;;;;29.92;34.70;100396.38;5064373;28;20489;-80
2022/08/21 07:57:04;;;;;;;7.93;5.40;;;;;;;30.09;34.05;100397.00;5052964;28;20521;-77
2022/08/21 07:59:30;;;;;;;10.10;6.07;;;;;;;29.52;34.20;100395.78;5060694;28;20505;-80
2022/08/21 08:01:58;;;;;;;6.53;5.10;;;;;;;29.84;32.61;100394.91;5057592;28;20516;-77
2022/08/21 08:04:25;;;;;;;8.23;4.60;;;;;;;30.35;32.17;100397.19;5043199;28;20939;-79
2022/08/21 08:06:51;;;;;;;6.50;4.10;;;;;;;30.11;32.20;100400.34;5041498;28;20473;-79
2022/08/21 08:09:18;;;;;;;9.43;5.10;;;;;;;30.22;32.23;100401.22;5042087;28;20435;-79
2022/08/21 08:11:45;;;;;;;12.90;4.97;;;;;;;29.94;33.49;100399.69;5041248;28;20497;-79
2022/08/21 08:14:13;;;;;;;7.40;3.63;;;;;;;30.94;30.64;100399.59;5042100;28;20482;-79
2022/08/21 08:16:40;;;;;;;6.10;4.40;;;;;;;30.32;31.94;100404.03;5041285;28;20470;-79
2022/08/21 08:19:06;;;;;;;7.13;3.87;;;;;;;30.86;31.25;100397.34;5043442;28;20516;-78
2022/08/21 08:21:34;;;;;;;5.53;3.53;;;;;;;30.48;31.57;100395.84;5061106;28;20477;-79
2022/08/21 08:24:00;;;;;;;8.40;4.30;;;;;;;29.76;33.09;100404.53;5061472;28;20461;-79
2022/08/21 08:26:27;;;;;;;7.00;3.87;;;;;;;30.98;30.31;100403.47;5061170;28;20489;-80
2022/08/21 08:28:54;;;;;;;5.07;3.00;;;;;;;30.36;31.14;100396.91;5061913;28;20453;-79
2022/08/21 08:31:23;;;;;;;4.17;2.80;;;;;;;30.64;31.47;100400.34;5060867;28;20473;-79
2022/08/21 08:33:49;;;;;;;6.20;3.10;;;;;;;31.03;29.16;100399.06;5062076;28;20457;-79
2022/08/21 08:36:18;;;;;;;6.50;3.20;;;;;;;30.77;30.56;100391.53;5060675;28;20496;-79
2022/08/21 08:38:45;;;;;;;5.67;2.67;;;;;;;31.72;28.43;100387.50;5061083;28;20446;-79
2022/08/21 08:41:14;;;;;;;9.83;3.40;;;;;;;29.70;30.32;100385.44;5061012;28;20486;-79
2022/08/21 08:43:42;;;;;;;6.83;3.20;;;;;;;29.31;32.46;100381.00;5061480;28;20463;-79
2022/08/21 08:46:13;;;;;;;6.67;2.83;;;;;;;30.38;30.01;100375.41;5060603;28;20503;-79
2022/08/21 08:48:47;;;;;;;6.37;2.60;;;;;;;30.77;29.99;100380.47;5061932;28;20441;-79
2022/08/21 08:51:19;;;;;;;5.97;2.77;;;;;;;30.70;30.84;100379.91;5060076;28;20469;-80
2022/08/21 08:53:50;;;;;;;6.20;2.50;;;;;;;30.46;30.38;100376.81;5061237;28;20462;-77
2022/08/21 08:56:20;;;;;;;5.03;2.57;;;;;;;30.98;30.53;100377.81;5060997;28;20481;-79
2022/08/21 08:58:48;;;;;;;6.87;2.27;;;;;;;31.19;29.38;100377.81;5061597;28;20430;-79
2022/08/21 09:01:17;;;;;;;6.40;2.67;;;;;;;30.11;31.64;100381.03;5060657;28;20978;-79
2022/08/21 09:03:49;;;;;;;5.73;2.30;;;;;;;31.91;28.79;100373.94;5064618;28;20462;-79
2022/08/21 09:06:24;;;;;;;6.50;2.20;;;;;;;31.24;28.62;100375.06;5044770;28;20474;-79
2022/08/21 09:08:56;;;;;;;5.00;2.47;;;;;;;31.44;28.63;100375.06;5045166;28;20520;-79
2022/08/21 09:11:28;;;;;;;6.80;1.83;;;;;;;32.06;27.87;100364.78;5044807;28;20474;-79
2022/08/21 09:14:02;;;;;;;4.30;2.20;;;;;;;31.33;28.84;100376.16;5045216;28;20458;-79
2022/08/21 09:16:39;;;;;;;5.33;2.23;;;;;;;31.73;28.36;100368.97;5044228;28;20942;-79
2022/08/21 09:19:15;;;;;;;8.50;2.77;;;;;;;31.23;29.07;100368.72;5049588;28;21024;-80
2022/08/21 09:21:47;;;;;;;5.43;2.60;;;;;;;32.19;27.29;100365.31;5063995;28;20491;-79
2022/08/21 09:24:31;;;;;;;6.23;2.50;;;;;;;31.58;27.28;100357.94;5064638;28;20481;-80
2022/08/21 09:27:04;;;;;;;9.47;2.70;;;;;;;30.91;29.23;100360.66;5064219;28;20465;-78
2022/08/21 09:29:34;;;;;;;7.47;3.10;;;;;;;30.83;29.88;100366.69;5064419;28;20438;-78
2022/08/21 09:32:01;;;;;;;4.53;2.83;;;;;;;30.54;29.60;100362.50;5064256;28;20466;-78
2022/08/21 09:34:32;;;;;;;7.00;2.73;;;;;;;29.50;31.38;100364.91;5064400;28;20480;-78
2022/08/21 09:36:59;;;;;;;8.13;3.10;;;;;;;27.52;34.90;100366.63;5045218;28;20500;-78
2022/08/21 09:39:28;;;;;;;3.93;2.73;;;;;;;28.21;34.25;100365.47;5044646;28;20779;-79
2022/08/21 09:41:59;;;;;;;8.43;3.60;;;;;;;29.58;32.28;100358.06;5043766;28;20486;-78
2022/08/21 09:44:28;;;;;;;8.23;3.13;;;;;;;30.84;29.87;100360.91;5043833;28;20457;-79
2022/08/21 09:46:55;;;;;;;10.60;3.37;;;;;;;30.61;30.05;100367.75;5043853;28;20496;-79
2022/08/21 09:49:29;;;;;;;4.50;2.23;;;;;;;29.95;30.77;100360.81;5050971;28;20484;-79
2022/08/21 09:51:56;;;;;;;10.13;3.17;;;;;;;27.34;33.72;100361.38;5063900;28;20472;-79
2022/08/21 09:54:28;;;;;;;5.37;2.77;;;;;;;27.34;34.62;100361.38;5063478;28;20461;-78
2022/08/21 09:59:43;;;;;;;6.03;3.27;;;;;;;28.38;34.53;100348.06;5064128;28;20468;-78
2022/08/21 10:02:26;;;;;;;7.20;3.60;;;;;;;29.24;32.40;100342.66;5063789;28;20485;-78
2022/08/21 10:04:57;;;;;;;6.03;3.63;;;;;;;29.67;31.31;100345.47;5062425;28;20602;-75
2022/08/21 10:07:25;;;;;;;10.13;3.70;;;;;;;29.93;31.27;100342.88;5063596;28;21015;-78
2022/08/21 10:10:05;;;;;;;6.00;4.10;;;;;;;30.11;30.41;100338.84;5064091;28;20439;-78
2022/08/21 10:12:42;;;;;;;5.70;3.83;;;;;;;31.06;30.03;100337.78;5063794;28;20544;-78
2022/08/21 10:15:16;;;;;;;8.00;4.17;;;;;;;28.87;33.44;100332.41;5062696;28;20457;-79
2022/08/21 10:17:48;;;;;;;7.10;4.00;;;;;;;28.28;33.91;100333.09;5063830;28;20910;-79
2022/08/21 10:20:21;;;;;;;7.80;4.70;;;;;;;30.31;31.58;100335.34;5046234;28;20529;-79
2022/08/21 10:22:56;;;;;;;6.47;3.83;;;;;;;29.09;32.94;100334.25;5049476;28;20893;-79
2022/08/21 10:25:28;;;;;;;8.10;4.80;;;;;;;28.61;33.80;100323.06;5062709;28;20452;-78
2022/08/21 10:28:00;;;;;;;5.80;4.13;;;;;;;27.40;37.00;100333.75;5063870;28;20417;-79
2022/08/21 10:30:36;;;;;;;6.30;4.37;;;;;;;28.21;34.54;100321.47;5062948;28;20537;-78
2022/08/21 10:33:14;;;;;;;6.27;4.50;;;;;;;26.79;37.38;100317.06;5063699;28;20455;-79
2022/08/21 10:35:50;;;;;;;6.30;3.43;;;;;;;27.53;35.22;100320.78;5063049;28;20483;-79
2022/08/21 10:38:47;;;;;;;5.33;3.43;;;;;;;27.99;35.59;100314.03;5061920;28;20502;-79
2022/08/21 10:41:20;;;;;;;8.60;3.83;;;;;;;28.29;34.75;100320.19;5056518;28;20484;-79
2022/08/21 10:43:53;;;;;;;7.20;3.23;;;;;;;28.21;34.99;100315.97;5063101;28;20464;-79
2022/08/21 10:46:34;;;;;;;7.90;3.33;;;;;;;28.58;33.75;100320.81;5062333;28;20530;-79
2022/08/21 10:49:14;;;;;;;6.20;2.83;;;;;;;29.57;30.60;100321.44;5063477;28;20437;-79
2022/08/21 10:51:48;;;;;;;4.80;2.70;;;;;;;29.96;30.76;100314.78;5062575;28;20729;-79
2022/08/21 10:54:21;;;;;;;11.90;2.70;;;;;;;30.46;30.54;100310.59;5062324;28;20469;-79
2022/08/21 10:56:48;;;;;;;3.53;2.37;;;;;;;31.09;28.81;100313.22;5062501;28;20538;-79
2022/08/21 10:59:26;;;;;;;7.60;2.50;;;;;;;30.66;28.69;100309.81;5063419;28;20532;-79
2022/08/21 11:01:57;;;;;;;3.30;2.10;;;;;;;29.59;31.72;100305.44;5042621;28;20605;-79
2022/08/21 11:04:27;;;;;;;6.60;2.40;;;;;;;28.80;32.57;100314.44;5042969;28;20446;-79
2022/08/21 11:07:03;;;;;;;7.67;2.70;;;;;;;28.39;33.19;100300.22;5046805;28;20492;-80
2022/08/21 11:09:29;;;;;;;5.33;2.97;;;;;;;27.90;34.05;100303.72;5063346;28;20435;-79
2022/08/21 11:12:01;;;;;;;5.20;2.10;;;;;;;29.72;31.56;100306.06;5062301;28;20481;-79
2022/08/21 11:14:37;;;;;;;5.93;2.30;;;;;;;29.01;32.32;100299.78;5062244;28;20486;-79
2022/08/21 11:17:08;;;;;;;7.47;2.60;;;;;;;29.36;32.61;100303.94;5062066;28;20472;-79
2022/08/21 11:19:41;;;;;;;4.30;2.20;;;;;;;30.77;29.71;100303.19;5062908;28;20467;-79
2022/08/21 11:22:12;;;;;;;5.23;1.97;;;;;;;29.63;30.80;100311.25;5059079;28;20551;-80
2022/08/21 11:24:44;;;;;;;5.40;2.40;;;;;;;29.93;30.54;100301.53;5060963;28;20459;-79
2022/08/21 11:27:18;;;;;;;5.60;2.40;;;;;;;29.63;30.61;100303.84;5062352;28;20507;-79
2022/08/21 11:29:48;;;;;;;4.50;1.80;;;;;;;30.75;29.36;100301.81;5062865;28;20441;-79
2022/08/21 11:32:43;;;;;;;3.73;2.10;;;;;;;30.52;29.40;100297.63;5062435;28;20546;-79
2022/08/21 11:35:17;;;;;;;5.77;2.57;;;;;;;31.71;28.94;100300.16;5062215;28;20452;-79